createdAt,value
2022-10-21T00:00:53.986Z,12.10
2022-10-21T00:03:23.191Z,12.20
2022-10-21T00:05:51.327Z,12.20
2022-10-21T00:08:19.986Z,12.20
2022-10-21T00:10:52.211Z,12.30
2022-10-21T00:13:20.080Z,12.30
2022-10-21T00:15:59.176Z,12.30
2022-10-21T00:18:27.240Z,12.30
2022-10-21T00:20:54.850Z,12.30
2022-10-21T00:23:22.538Z,12.30
2022-10-21T00:25:49.919Z,12.30
2022-10-21T00:28:17.306Z,12.30
2022-10-21T00:30:45.915Z,12.30
2022-10-21T00:33:13.576Z,12.30
2022-10-21T00:35:41.314Z,12.30
2022-10-21T00:38:08.676Z,12.30
2022-10-21T00:40:36.088Z,12.30
2022-10-21T00:43:03.485Z,12.30
2022-10-21T00:45:31.030Z,12.30
2022-10-21T00:48:09.788Z,12.30
2022-10-21T00:50:45.420Z,12.30
2022-10-21T00:53:15.898Z,12.30
2022-10-21T00:55:52.541Z,12.40
2022-10-21T00:58:24.950Z,12.40
2022-10-21T01:00:56.060Z,12.40
2022-10-21T01:03:27.989Z,12.40
2022-10-21T01:05:59.601Z,12.40
2022-10-21T01:08:28.559Z,12.40
2022-10-21T01:10:56.827Z,12.30
2022-10-21T01:14:02.705Z,12.30
2022-10-21T01:16:42.141Z,12.30
2022-10-21T01:19:39.076Z,12.30
2022-10-21T01:22:33.943Z,12.30
2022-10-21T01:25:24.411Z,12.30
2022-10-21T01:28:29.505Z,12.30
2022-10-21T01:31:20.055Z,12.30
2022-10-21T01:34:01.424Z,12.40
2022-10-21T01:36:43.228Z,12.30
2022-10-21T01:39:23.100Z,12.30
2022-10-21T01:42:03.742Z,12.30
2022-10-21T01:44:41.659Z,12.30
2022-10-21T01:47:16.685Z,12.30
2022-10-21T01:50:16.918Z,12.30
2022-10-21T01:52:48.927Z,12.30
2022-10-21T01:55:21.029Z,12.30
2022-10-21T01:57:56.068Z,12.20
2022-10-21T02:02:52.662Z,12.20
2022-10-21T02:05:23.351Z,12.20
2022-10-21T02:07:50.780Z,12.20
2022-10-21T02:10:19.182Z,12.20
2022-10-21T02:12:49.276Z,12.20
2022-10-21T02:15:18.066Z,12.20
2022-10-21T02:17:55.439Z,12.30
2022-10-21T02:20:26.132Z,12.30
2022-10-21T02:22:53.849Z,12.30
2022-10-21T02:25:25.432Z,12.30
2022-10-21T02:27:53.194Z,12.30
2022-10-21T02:30:21.183Z,12.30
2022-10-21T02:33:17.905Z,12.30
2022-10-21T02:35:48.258Z,12.30
2022-10-21T02:38:24.428Z,12.30
2022-10-21T02:40:56.888Z,12.30
2022-10-21T02:43:46.478Z,12.30
2022-10-21T02:46:14.996Z,12.30
2022-10-21T02:48:47.111Z,12.30
2022-10-21T02:51:15.151Z,12.30
2022-10-21T02:53:43.283Z,12.30
2022-10-21T02:56:10.723Z,12.30
2022-10-21T02:58:38.572Z,12.30
2022-10-21T03:01:06.175Z,12.30
2022-10-21T03:03:33.596Z,12.30
2022-10-21T03:06:01.003Z,12.30
2022-10-21T03:08:28.486Z,12.30
2022-10-21T03:10:55.888Z,12.30
2022-10-21T03:13:23.366Z,12.30
2022-10-21T03:15:51.291Z,12.30
2022-10-21T03:18:19.041Z,12.30
2022-10-21T03:20:50.590Z,12.30
2022-10-21T03:23:19.995Z,12.30
2022-10-21T03:25:47.896Z,12.40
2022-10-21T03:28:15.320Z,12.30
2022-10-21T03:30:42.838Z,12.30
2022-10-21T03:33:10.282Z,12.30
2022-10-21T03:35:37.692Z,12.30
2022-10-21T03:38:05.047Z,12.30
2022-10-21T03:40:32.416Z,12.30
2022-10-21T03:43:00.003Z,12.30
2022-10-21T03:45:27.400Z,12.40
2022-10-21T03:47:54.896Z,12.40
2022-10-21T03:50:26.019Z,12.50
2022-10-21T03:52:55.587Z,12.60
2022-10-21T03:55:25.187Z,12.60
2022-10-21T03:57:53.316Z,12.60
2022-10-21T04:00:21.435Z,12.60
2022-10-21T04:02:49.187Z,12.70
2022-10-21T04:05:17.233Z,12.70
2022-10-21T04:07:48.150Z,12.70
2022-10-21T04:10:18.289Z,12.70
2022-10-21T04:12:46.144Z,12.70
2022-10-21T04:15:14.188Z,12.70
2022-10-21T04:17:42.000Z,12.70
2022-10-21T04:20:10.961Z,12.70
2022-10-21T04:22:38.706Z,12.80
2022-10-21T04:25:06.556Z,12.80
2022-10-21T04:27:34.349Z,12.80
2022-10-21T04:30:01.766Z,12.80
2022-10-21T04:32:29.527Z,12.80
2022-10-21T04:34:56.898Z,12.80
2022-10-21T04:37:24.227Z,12.80
2022-10-21T04:39:51.659Z,12.80
2022-10-21T04:42:19.030Z,12.70
2022-10-21T04:44:46.415Z,12.70
2022-10-21T04:47:13.806Z,12.70
2022-10-21T04:49:41.140Z,12.70
2022-10-21T04:52:08.590Z,12.70
2022-10-21T04:54:36.014Z,12.70
2022-10-21T04:57:03.504Z,12.70
2022-10-21T04:59:30.838Z,12.70
2022-10-21T05:01:58.277Z,12.60
2022-10-21T05:04:25.694Z,12.60
2022-10-21T05:06:53.031Z,12.50
2022-10-21T05:09:20.444Z,12.50
2022-10-21T05:11:47.821Z,12.50
2022-10-21T05:14:17.616Z,12.50
2022-10-21T05:16:47.456Z,12.50
2022-10-21T05:19:15.199Z,12.50
2022-10-21T05:21:42.566Z,12.50
2022-10-21T05:24:10.105Z,12.50
2022-10-21T05:26:37.536Z,12.40
2022-10-21T05:29:05.028Z,12.50
2022-10-21T05:31:32.296Z,12.40
2022-10-21T05:33:59.759Z,12.40
2022-10-21T05:36:27.180Z,12.40
2022-10-21T05:38:54.685Z,12.40
2022-10-21T05:41:22.048Z,12.40
2022-10-21T05:43:49.371Z,12.50
2022-10-21T05:46:16.856Z,12.50
2022-10-21T05:48:44.290Z,12.50
2022-10-21T05:51:11.804Z,12.50
2022-10-21T05:53:39.889Z,12.50
2022-10-21T05:56:08.241Z,12.50
2022-10-21T05:58:35.946Z,12.50
2022-10-21T06:01:03.867Z,12.60
2022-10-21T06:03:33.057Z,12.60
2022-10-21T06:06:03.537Z,12.70
2022-10-21T06:08:32.311Z,12.60
2022-10-21T06:11:04.659Z,12.60
2022-10-21T06:13:32.514Z,12.60
2022-10-21T06:16:00.094Z,12.60
2022-10-21T06:18:28.031Z,12.60
2022-10-21T06:20:55.526Z,12.60
2022-10-21T06:23:23.003Z,12.70
2022-10-21T06:26:05.818Z,12.60
2022-10-21T06:28:35.309Z,12.70
2022-10-21T06:31:03.166Z,12.70
2022-10-21T06:33:30.648Z,12.70
2022-10-21T06:35:58.163Z,12.70
2022-10-21T06:38:26.123Z,12.70
2022-10-21T06:41:00.883Z,12.70
2022-10-21T06:43:28.343Z,12.80
2022-10-21T06:46:04.495Z,12.80
2022-10-21T06:48:33.330Z,12.90
2022-10-21T06:51:03.030Z,12.90
2022-10-21T06:53:32.101Z,12.90
2022-10-21T06:56:02.370Z,12.90
2022-10-21T06:58:30.669Z,12.90
2022-10-21T07:00:58.502Z,13.00
2022-10-21T07:03:25.928Z,13.00
2022-10-21T07:06:02.368Z,13.00
2022-10-21T07:08:46.327Z,13.00
2022-10-21T07:11:15.199Z,13.00
2022-10-21T07:13:42.677Z,13.00
2022-10-21T07:16:22.849Z,13.10
2022-10-21T07:18:50.282Z,13.10
2022-10-21T07:21:19.911Z,13.20
2022-10-21T07:23:51.280Z,13.30
2022-10-21T07:26:20.899Z,13.30
2022-10-21T07:28:48.327Z,13.40
2022-10-21T07:31:20.480Z,13.50
2022-10-21T07:33:48.435Z,13.60
2022-10-21T07:36:22.786Z,13.80
2022-10-21T07:38:51.096Z,13.80
2022-10-21T07:41:21.787Z,13.90
2022-10-21T07:43:49.839Z,14.10
2022-10-21T07:46:18.829Z,14.10
2022-10-21T07:48:46.307Z,14.20
2022-10-21T07:51:16.888Z,14.30
2022-10-21T07:53:44.239Z,14.30
2022-10-21T07:56:15.481Z,14.40
2022-10-21T07:58:44.086Z,14.40
2022-10-21T08:01:11.735Z,14.50
2022-10-21T08:03:40.184Z,14.50
2022-10-21T08:06:09.209Z,14.60
2022-10-21T08:08:37.258Z,14.60
2022-10-21T08:11:05.587Z,14.70
2022-10-21T08:13:33.471Z,14.80
2022-10-21T08:16:01.853Z,15.00
2022-10-21T08:18:30.346Z,15.10
2022-10-21T08:20:57.831Z,15.20
2022-10-21T08:23:26.465Z,15.30
2022-10-21T08:25:56.491Z,15.30
2022-10-21T08:28:26.090Z,15.50
2022-10-21T08:30:53.810Z,15.50
2022-10-21T08:33:21.217Z,15.60
2022-10-21T08:35:48.635Z,15.70
2022-10-21T08:38:16.044Z,15.70
2022-10-21T08:40:50.977Z,15.80
2022-10-21T08:43:24.042Z,15.90
2022-10-21T08:46:18.428Z,15.90
2022-10-21T08:48:55.634Z,15.90
2022-10-21T08:51:42.654Z,15.90
2022-10-21T08:54:20.427Z,15.90
2022-10-21T08:56:50.449Z,16.00
2022-10-21T08:59:23.512Z,15.90
2022-10-21T09:02:08.830Z,16.00
2022-10-21T09:05:07.495Z,16.00
2022-10-21T09:07:57.587Z,16.10
2022-10-21T09:10:50.549Z,16.20
2022-10-21T09:13:25.869Z,16.30
2022-10-21T09:16:11.642Z,16.50
2022-10-21T09:19:02.453Z,16.60
2022-10-21T09:22:05.861Z,16.60
2022-10-21T09:25:03.170Z,16.70
2022-10-21T09:27:51.217Z,16.70
2022-10-21T09:30:24.284Z,16.70
2022-10-21T09:32:59.881Z,16.70
2022-10-21T09:35:37.899Z,16.80
2022-10-21T09:38:23.909Z,16.70
2022-10-21T09:40:59.321Z,16.70
2022-10-21T09:43:27.792Z,16.60
2022-10-21T09:45:55.873Z,16.60
2022-10-21T09:48:42.657Z,16.70
2022-10-21T09:51:35.333Z,16.60
2022-10-21T09:54:14.881Z,16.60
2022-10-21T09:57:19.163Z,16.60
2022-10-21T09:59:51.769Z,16.70
2022-10-21T10:02:26.979Z,16.70
2022-10-21T10:04:54.500Z,16.70
2022-10-21T10:07:26.294Z,16.70
2022-10-21T10:09:53.987Z,16.80
2022-10-21T10:12:26.670Z,16.80
2022-10-21T10:14:55.564Z,16.80
2022-10-21T10:17:30.328Z,16.80
2022-10-21T10:20:17.504Z,16.80
2022-10-21T10:23:09.332Z,16.80
2022-10-21T10:25:39.291Z,16.80
2022-10-21T10:28:09.487Z,16.80
2022-10-21T10:30:43.076Z,16.70
2022-10-21T10:33:16.310Z,16.70
2022-10-21T10:35:51.184Z,16.60
2022-10-21T10:38:36.869Z,16.50
2022-10-21T10:41:17.259Z,16.70
2022-10-21T10:43:49.314Z,16.80
2022-10-21T10:46:36.702Z,16.80
2022-10-21T10:49:12.891Z,16.80
2022-10-21T10:51:43.412Z,16.90
2022-10-21T10:54:20.067Z,17.00
2022-10-21T10:57:04.836Z,17.00
2022-10-21T10:59:40.078Z,17.10
2022-10-21T11:02:11.454Z,17.10
2022-10-21T11:04:47.939Z,17.10
2022-10-21T11:07:47.726Z,17.10
2022-10-21T11:10:36.440Z,17.20
2022-10-21T11:13:16.601Z,17.20
2022-10-21T11:16:17.729Z,17.20
2022-10-21T11:18:49.792Z,17.30
2022-10-21T11:21:47.039Z,17.40
2022-10-21T11:24:29.434Z,17.40
2022-10-21T11:27:11.990Z,17.40
2022-10-21T11:30:08.526Z,17.40
2022-10-21T11:32:47.544Z,17.30
2022-10-21T11:35:22.436Z,17.30
2022-10-21T11:38:14.710Z,17.20
2022-10-21T11:40:49.111Z,17.30
2022-10-21T11:43:37.498Z,17.40
2022-10-21T11:46:21.030Z,17.50
2022-10-21T11:49:03.234Z,17.70
2022-10-21T11:51:51.948Z,17.80
2022-10-21T11:54:25.198Z,17.90
2022-10-21T11:57:04.359Z,17.90
2022-10-21T12:00:00.715Z,18.00
2022-10-21T12:02:43.915Z,17.90
2022-10-21T12:06:00.720Z,18.00
2022-10-21T12:08:39.686Z,18.10
2022-10-21T12:11:19.455Z,18.10
2022-10-21T12:13:52.722Z,18.40
2022-10-21T12:16:32.532Z,18.80
2022-10-21T12:19:05.520Z,18.70
2022-10-21T12:21:39.122Z,18.50
2022-10-21T12:24:25.942Z,18.30
2022-10-21T12:27:02.542Z,18.20
2022-10-21T12:30:10.588Z,18.10
2022-10-21T12:33:13.115Z,18.20
2022-10-21T12:35:46.042Z,18.10
2022-10-21T12:38:22.654Z,18.00
2022-10-21T12:40:51.610Z,18.00
2022-10-21T12:43:28.791Z,18.10
2022-10-21T12:46:06.087Z,18.00
2022-10-21T12:48:43.063Z,18.00
2022-10-21T12:51:23.865Z,18.10
2022-10-21T12:53:57.617Z,18.20
2022-10-21T12:56:38.294Z,18.30
2022-10-21T12:59:07.156Z,18.40
2022-10-21T13:01:37.502Z,18.60
2022-10-21T13:04:06.105Z,18.60
2022-10-21T13:06:55.384Z,18.50
2022-10-21T13:09:54.704Z,18.40
2022-10-21T13:12:24.923Z,18.70
2022-10-21T13:14:56.929Z,18.90
2022-10-21T13:17:28.108Z,18.70
2022-10-21T13:20:16.856Z,18.70
2022-10-21T13:23:06.038Z,18.60
2022-10-21T13:25:35.892Z,18.50
2022-10-21T13:28:12.465Z,18.40
2022-10-21T13:30:58.600Z,18.40
2022-10-21T13:33:29.856Z,18.20
2022-10-21T13:36:11.377Z,18.20
2022-10-21T13:38:49.467Z,18.20
2022-10-21T13:41:27.442Z,18.20
2022-10-21T13:43:58.678Z,18.30
2022-10-21T13:46:36.773Z,18.40
2022-10-21T13:49:23.780Z,18.50
2022-10-21T13:51:52.829Z,18.40
2022-10-21T13:54:20.389Z,18.30
2022-10-21T13:56:48.447Z,18.30
2022-10-21T13:59:27.150Z,18.30
2022-10-21T14:01:58.461Z,18.20
2022-10-21T14:04:31.396Z,18.20
2022-10-21T14:07:05.953Z,18.10
2022-10-21T14:09:48.010Z,18.10
2022-10-21T14:12:26.940Z,18.10
2022-10-21T14:14:57.079Z,18.10
2022-10-21T14:17:27.306Z,18.10
2022-10-21T14:20:06.080Z,18.10
2022-10-21T14:22:33.932Z,18.10
2022-10-21T14:25:02.375Z,18.10
2022-10-21T14:27:32.840Z,18.20
2022-10-21T14:30:04.742Z,18.20
2022-10-21T14:32:32.830Z,18.20
2022-10-21T14:35:20.103Z,18.20
2022-10-21T14:37:50.136Z,18.30
2022-10-21T14:40:39.946Z,18.30
2022-10-21T14:43:27.627Z,18.20
2022-10-21T14:45:55.546Z,18.20
2022-10-21T14:48:32.326Z,18.30
2022-10-21T14:51:03.383Z,18.30
2022-10-21T14:53:37.991Z,18.20
2022-10-21T14:56:06.935Z,18.20
2022-10-21T14:58:38.497Z,18.30
2022-10-21T15:01:20.061Z,18.20
2022-10-21T15:03:54.191Z,18.20
2022-10-21T15:06:24.551Z,18.20
2022-10-21T15:09:05.250Z,18.30
2022-10-21T15:11:39.309Z,18.30
2022-10-21T15:14:12.650Z,18.30
2022-10-21T15:16:52.111Z,18.40
2022-10-21T15:19:26.953Z,18.30
2022-10-21T15:22:00.957Z,18.30
2022-10-21T15:24:40.351Z,18.20
2022-10-21T15:27:14.439Z,18.20
2022-10-21T15:29:48.871Z,18.20
2022-10-21T15:32:21.226Z,18.20
2022-10-21T15:34:53.186Z,18.20
2022-10-21T15:37:20.648Z,18.20
2022-10-21T15:39:48.632Z,18.20
2022-10-21T15:42:18.291Z,18.10
2022-10-21T15:44:51.228Z,18.10
2022-10-21T15:47:18.767Z,18.10
2022-10-21T15:49:46.778Z,18.10
2022-10-21T15:52:14.926Z,18.00
2022-10-21T15:54:42.777Z,18.00
2022-10-21T15:57:17.359Z,17.90
2022-10-21T15:59:45.291Z,17.90
2022-10-21T16:02:16.740Z,17.90
2022-10-21T16:04:45.346Z,17.90
2022-10-21T16:07:28.963Z,17.90
2022-10-21T16:09:57.194Z,17.90
2022-10-21T16:12:24.574Z,17.80
2022-10-21T16:14:52.415Z,17.70
2022-10-21T16:17:20.229Z,17.70
2022-10-21T16:19:47.616Z,17.60
2022-10-21T16:22:20.285Z,17.60
2022-10-21T16:24:47.802Z,17.60
2022-10-21T16:27:30.912Z,17.50
2022-10-21T16:29:59.675Z,17.50
2022-10-21T16:32:27.189Z,17.50
2022-10-21T16:34:54.583Z,17.20
2022-10-21T16:37:25.363Z,16.70
2022-10-21T16:39:53.374Z,16.30
2022-10-21T16:42:20.993Z,16.00
2022-10-21T16:44:49.855Z,15.80
2022-10-21T16:47:20.309Z,15.70
2022-10-21T16:49:49.530Z,15.70
2022-10-21T16:52:17.308Z,15.70
2022-10-21T16:54:48.675Z,15.70
2022-10-21T16:57:16.400Z,15.70
2022-10-21T16:59:43.971Z,15.80
2022-10-21T17:02:17.284Z,15.80
2022-10-21T17:04:45.719Z,15.80
2022-10-21T17:07:13.578Z,15.90
2022-10-21T17:09:41.028Z,15.90
2022-10-21T17:12:11.763Z,15.90
2022-10-21T17:14:39.245Z,15.90
2022-10-21T17:17:09.017Z,15.90
2022-10-21T17:19:36.600Z,15.90
2022-10-21T17:22:04.027Z,16.00
2022-10-21T17:24:31.431Z,15.90
2022-10-21T17:26:58.855Z,15.90
2022-10-21T17:29:26.250Z,16.00
2022-10-21T17:31:53.697Z,16.00
2022-10-21T17:34:29.900Z,16.00
2022-10-21T17:36:57.929Z,16.00
2022-10-21T17:39:25.420Z,15.90
2022-10-21T17:41:53.152Z,15.80
2022-10-21T17:44:21.084Z,15.70
2022-10-21T17:46:51.869Z,15.60
2022-10-21T17:49:19.235Z,15.60
2022-10-21T17:51:46.660Z,15.50
2022-10-21T17:54:14.228Z,15.50
2022-10-21T17:56:41.964Z,15.50
2022-10-21T17:59:09.622Z,15.50
2022-10-21T18:01:37.884Z,15.50
2022-10-21T18:04:05.345Z,15.50
2022-10-21T18:06:32.870Z,15.50
2022-10-21T18:09:00.346Z,15.60
2022-10-21T18:11:28.093Z,15.60
2022-10-21T18:13:56.200Z,15.60
2022-10-21T18:16:24.194Z,15.60
2022-10-21T18:18:52.457Z,15.60
2022-10-21T18:21:22.877Z,15.70
2022-10-21T18:23:53.017Z,15.70
2022-10-21T18:26:25.410Z,15.70
2022-10-21T18:28:58.294Z,15.70
2022-10-21T18:31:31.195Z,15.70
2022-10-21T18:34:00.802Z,15.70
2022-10-21T18:36:28.610Z,15.70
2022-10-21T18:38:57.978Z,15.70
2022-10-21T18:41:27.405Z,15.70
2022-10-21T18:43:57.427Z,15.70
2022-10-21T18:46:24.833Z,15.70
2022-10-21T18:48:52.250Z,15.70
2022-10-21T18:51:22.804Z,15.80
2022-10-21T18:53:52.861Z,15.80
2022-10-21T18:56:22.978Z,15.80
2022-10-21T18:58:51.621Z,15.80
2022-10-21T19:01:20.562Z,15.80
2022-10-21T19:03:50.775Z,15.80
2022-10-21T19:06:31.842Z,15.80
2022-10-21T19:09:03.710Z,15.80
2022-10-21T19:11:31.426Z,15.80
2022-10-21T19:13:58.882Z,15.80
2022-10-21T19:16:26.419Z,15.80
2022-10-21T19:18:54.839Z,15.80
2022-10-21T19:21:23.582Z,15.90
2022-10-21T19:23:51.947Z,15.90
2022-10-21T19:26:22.396Z,16.00
2022-10-21T19:28:51.366Z,16.00
2022-10-21T19:31:21.486Z,16.00
2022-10-21T19:33:48.978Z,16.00
2022-10-21T19:36:16.467Z,16.10
2022-10-21T19:38:44.759Z,16.10
2022-10-21T19:41:16.467Z,16.10
2022-10-21T19:43:44.164Z,16.20
2022-10-21T19:46:18.891Z,16.20
2022-10-21T19:48:48.812Z,16.20
2022-10-21T19:51:18.077Z,16.20
2022-10-21T19:53:46.020Z,16.20
2022-10-21T19:56:14.563Z,16.20
2022-10-21T19:58:46.947Z,16.20
2022-10-21T20:01:16.965Z,16.20
2022-10-21T20:03:46.530Z,16.20
2022-10-21T20:06:17.306Z,16.20
2022-10-21T20:08:44.885Z,16.30
2022-10-21T20:11:15.394Z,16.20
2022-10-21T20:13:43.418Z,16.20
2022-10-21T20:16:19.926Z,16.30
2022-10-21T20:18:47.656Z,16.20
2022-10-21T20:21:15.350Z,16.20
2022-10-21T20:23:43.016Z,16.20
2022-10-21T20:26:10.664Z,16.20
2022-10-21T20:28:38.708Z,16.30
2022-10-21T20:31:09.239Z,16.40
2022-10-21T20:33:40.142Z,16.30
2022-10-21T20:36:10.157Z,16.30
2022-10-21T20:38:37.859Z,16.30
2022-10-21T20:41:07.504Z,16.30
2022-10-21T20:43:36.185Z,16.30
2022-10-21T20:46:05.608Z,16.30
2022-10-21T20:48:34.272Z,16.30
2022-10-21T20:51:11.477Z,16.30
2022-10-21T20:53:42.076Z,16.30
2022-10-21T20:56:09.634Z,16.30
2022-10-21T20:58:39.263Z,16.30
2022-10-21T21:01:28.504Z,16.40
2022-10-21T21:03:58.331Z,16.40
2022-10-21T21:06:26.603Z,16.40
2022-10-21T21:09:15.169Z,16.40
2022-10-21T21:11:41.696Z,16.40
2022-10-21T21:14:09.112Z,16.40
2022-10-21T21:16:36.843Z,16.40
2022-10-21T21:19:06.811Z,16.40
2022-10-21T21:21:36.141Z,16.40
2022-10-21T21:24:04.175Z,16.40
2022-10-21T21:26:36.210Z,16.40
2022-10-21T21:29:06.300Z,16.40
2022-10-21T21:31:35.636Z,16.40
2022-10-21T21:34:03.252Z,16.40
2022-10-21T21:36:30.902Z,16.40
2022-10-21T21:38:58.440Z,16.40
2022-10-21T21:41:26.775Z,16.40
2022-10-21T21:43:56.650Z,16.40
2022-10-21T21:46:25.072Z,16.40
2022-10-21T21:48:55.356Z,16.40
2022-10-21T21:51:25.815Z,16.30
2022-10-21T21:53:53.979Z,16.30
2022-10-21T21:56:23.002Z,16.30
2022-10-21T21:58:51.893Z,16.20
2022-10-21T22:01:22.030Z,16.30
2022-10-21T22:03:51.988Z,16.30
2022-10-21T22:06:21.423Z,16.30
2022-10-21T22:08:50.323Z,16.30
2022-10-21T22:11:21.943Z,16.30
2022-10-21T22:13:49.888Z,16.30
2022-10-21T22:16:19.852Z,16.40
2022-10-21T22:18:47.364Z,16.30
2022-10-21T22:21:17.211Z,16.20
2022-10-21T22:23:45.462Z,16.10
2022-10-21T22:26:15.179Z,15.90
2022-10-21T22:28:44.007Z,15.60
2022-10-21T22:31:14.603Z,15.40
2022-10-21T22:36:11.060Z,15.20
2022-10-21T22:38:38.442Z,15.10
2022-10-21T22:41:08.562Z,15.10
2022-10-21T22:43:38.868Z,15.00
2022-10-21T22:46:21.609Z,15.00
2022-10-21T22:48:53.768Z,15.00
2022-10-21T22:51:21.147Z,15.00
2022-10-21T22:53:53.491Z,15.00
2022-10-21T22:56:25.286Z,14.90
2022-10-21T22:58:52.826Z,14.90
2022-10-21T23:01:21.051Z,14.90
2022-10-21T23:03:48.479Z,14.90
2022-10-21T23:06:16.150Z,14.90
2022-10-21T23:08:43.592Z,14.90
2022-10-21T23:11:11.012Z,14.80
2022-10-21T23:13:47.325Z,14.80
2022-10-21T23:16:23.999Z,14.80
2022-10-21T23:18:51.432Z,14.80
2022-10-21T23:21:18.755Z,14.80
2022-10-21T23:23:46.149Z,14.80
2022-10-21T23:26:13.623Z,14.80
2022-10-21T23:28:41.037Z,14.80
2022-10-21T23:31:08.397Z,14.90
2022-10-21T23:33:35.803Z,14.80
2022-10-21T23:36:03.301Z,14.80
2022-10-21T23:38:30.714Z,14.80
2022-10-21T23:40:58.108Z,14.80
2022-10-21T23:43:25.509Z,14.80
2022-10-21T23:45:52.869Z,14.80
2022-10-21T23:48:20.219Z,14.80
2022-10-21T23:50:47.610Z,14.80
2022-10-21T23:53:14.959Z,14.80
2022-10-21T23:55:42.342Z,14.80
2022-10-21T23:58:09.709Z,14.80
